createdAt,value
2022-07-25T00:02:14.209Z,99.90
2022-07-25T00:04:42.440Z,99.90
2022-07-25T00:07:12.219Z,99.90
2022-07-25T00:09:40.380Z,99.90
2022-07-25T00:12:08.742Z,1.00
2022-07-25T00:14:39.328Z,1.00
2022-07-25T00:17:07.461Z,1.00
2022-07-25T00:19:35.514Z,1.00
2022-07-25T00:22:03.652Z,1.00
2022-07-25T00:24:33.294Z,1.00
2022-07-25T00:27:02.753Z,1.00
2022-07-25T00:29:30.815Z,1.00
2022-07-25T00:31:58.957Z,1.00
2022-07-25T00:34:26.954Z,99.90
2022-07-25T00:36:55.079Z,99.90
2022-07-25T00:39:23.019Z,99.90
2022-07-25T00:41:52.359Z,99.90
2022-07-25T00:44:25.191Z,99.90
2022-07-25T00:46:53.443Z,99.90
2022-07-25T00:49:21.510Z,99.90
2022-07-25T00:51:49.978Z,99.90
2022-07-25T00:54:18.352Z,99.90
2022-07-25T00:56:47.245Z,99.90
2022-07-25T00:59:17.101Z,1.00
2022-07-25T01:01:47.998Z,99.90
2022-07-25T01:04:17.715Z,1.00
2022-07-25T01:06:46.109Z,99.90
2022-07-25T01:09:14.655Z,1.00
2022-07-25T01:11:42.790Z,99.90
2022-07-25T01:14:13.458Z,1.00
2022-07-25T01:16:42.964Z,99.90
2022-07-25T01:19:10.991Z,99.90
2022-07-25T01:21:42.341Z,99.90
2022-07-25T01:24:12.299Z,99.90
2022-07-25T01:26:40.429Z,1.00
2022-07-25T01:29:08.483Z,99.90
2022-07-25T01:31:36.443Z,99.90
2022-07-25T01:34:04.839Z,99.90
2022-07-25T01:36:33.031Z,99.90
2022-07-25T01:39:02.294Z,1.00
2022-07-25T01:41:30.220Z,1.00
2022-07-25T01:43:58.265Z,1.00
2022-07-25T01:46:26.351Z,53.10
2022-07-25T01:48:54.446Z,99.90
2022-07-25T01:51:22.537Z,99.90
2022-07-25T01:53:54.445Z,99.90
2022-07-25T01:56:23.750Z,1.00
2022-07-25T01:58:51.775Z,99.90
2022-07-25T02:01:21.657Z,99.90
2022-07-25T02:03:50.024Z,1.00
2022-07-25T02:06:20.536Z,1.00
2022-07-25T02:08:48.585Z,1.00
2022-07-25T02:11:17.989Z,1.00
2022-07-25T02:13:47.808Z,1.00
2022-07-25T02:16:15.669Z,1.00
2022-07-25T02:18:43.630Z,99.90
2022-07-25T02:21:14.283Z,77.00
2022-07-25T02:23:43.590Z,99.90
2022-07-25T02:26:12.598Z,99.90
2022-07-25T02:28:41.612Z,99.90
2022-07-25T02:31:11.952Z,1.00
2022-07-25T02:33:40.298Z,99.90
2022-07-25T02:36:09.459Z,99.90
2022-07-25T02:38:37.539Z,99.90
2022-07-25T02:41:06.330Z,1.00
2022-07-25T02:43:34.265Z,70.20
2022-07-25T02:46:02.247Z,99.90
2022-07-25T02:48:31.643Z,1.00
2022-07-25T02:51:00.292Z,99.90
2022-07-25T02:53:54.799Z,99.90
2022-07-25T02:56:21.170Z,99.90
2022-07-25T02:58:49.458Z,99.90
2022-07-25T03:01:17.593Z,1.00
2022-07-25T03:03:47.662Z,79.50
2022-07-25T03:06:15.819Z,99.90
2022-07-25T03:08:44.265Z,99.90
2022-07-25T03:11:14.223Z,99.90
2022-07-25T03:13:42.662Z,99.90
2022-07-25T03:16:11.036Z,99.90
2022-07-25T03:18:39.597Z,99.90
2022-07-25T03:21:16.285Z,99.90
2022-07-25T03:23:53.507Z,99.90
2022-07-25T03:26:28.159Z,1.00
2022-07-25T03:29:05.939Z,42.20
2022-07-25T03:31:46.501Z,1.00
2022-07-25T03:34:15.656Z,99.90
2022-07-25T03:36:48.453Z,1.00
2022-07-25T03:39:21.813Z,99.90
2022-07-25T03:41:51.726Z,99.90
2022-07-25T03:44:32.618Z,1.00
2022-07-25T03:47:11.451Z,1.00
2022-07-25T03:49:50.199Z,99.90
2022-07-25T03:52:23.090Z,99.90
2022-07-25T03:57:21.560Z,1.00
2022-07-25T04:00:02.608Z,1.00
2022-07-25T04:02:53.826Z,1.00
2022-07-25T04:05:26.199Z,1.00
2022-07-25T04:08:10.855Z,1.00
2022-07-25T04:10:40.313Z,1.00
2022-07-25T04:13:09.261Z,1.00
2022-07-25T04:15:38.639Z,1.00
2022-07-25T04:18:08.682Z,99.90
2022-07-25T04:20:45.273Z,99.90
2022-07-25T04:23:15.496Z,99.90
2022-07-25T04:25:46.695Z,1.00
2022-07-25T04:33:15.811Z,99.90
2022-07-25T04:35:56.958Z,1.00
2022-07-25T04:38:27.195Z,1.00
2022-07-25T04:40:56.649Z,1.00
2022-07-25T04:43:26.543Z,1.00
2022-07-25T04:45:58.753Z,1.00
2022-07-25T04:48:29.050Z,1.00
2022-07-25T04:51:04.162Z,37.90
2022-07-25T04:53:42.218Z,31.70
2022-07-25T04:56:12.905Z,99.90
2022-07-25T04:58:43.190Z,99.90
2022-07-25T05:01:11.689Z,99.90
2022-07-25T05:03:40.531Z,1.00
2022-07-25T05:06:09.586Z,99.90
2022-07-25T05:08:40.271Z,1.00
2022-07-25T05:11:08.226Z,80.50
2022-07-25T05:13:36.157Z,99.90
2022-07-25T05:16:04.231Z,99.90
2022-07-25T05:18:32.207Z,99.90
2022-07-25T05:21:00.125Z,99.90
2022-07-25T05:23:28.152Z,1.00
2022-07-25T05:25:57.685Z,99.90
2022-07-25T05:28:25.597Z,30.20
2022-07-25T05:30:53.520Z,99.90
2022-07-25T05:33:21.484Z,99.90
2022-07-25T05:35:49.429Z,99.90
2022-07-25T05:38:17.398Z,99.90
2022-07-25T05:40:45.864Z,1.00
2022-07-25T05:43:15.091Z,1.00
2022-07-25T05:45:44.074Z,38.80
2022-07-25T05:48:12.154Z,1.00
2022-07-25T05:50:40.293Z,1.00
2022-07-25T05:53:08.539Z,1.00
2022-07-25T05:55:40.721Z,99.90
2022-07-25T05:58:09.734Z,99.90
2022-07-25T06:00:40.181Z,99.90
2022-07-25T06:03:08.338Z,99.90
2022-07-25T06:05:36.916Z,1.00
2022-07-25T06:08:04.989Z,99.90
2022-07-25T06:10:33.509Z,99.90
2022-07-25T06:13:01.779Z,58.40
2022-07-25T06:15:30.433Z,99.90
2022-07-25T06:18:00.178Z,1.00
2022-07-25T06:20:28.163Z,1.00
2022-07-25T06:22:56.053Z,99.90
2022-07-25T06:25:24.504Z,99.90
2022-07-25T06:27:52.530Z,99.90
2022-07-25T06:30:20.823Z,99.90
2022-07-25T06:32:49.077Z,99.90
2022-07-25T06:35:18.600Z,99.90
2022-07-25T06:37:46.535Z,99.90
2022-07-25T06:40:15.380Z,99.90
2022-07-25T06:42:44.893Z,99.90
2022-07-25T06:45:14.282Z,99.90
2022-07-25T06:47:44.051Z,99.90
2022-07-25T06:50:14.359Z,99.90
2022-07-25T06:52:44.037Z,99.90
2022-07-25T06:55:14.018Z,99.90
2022-07-25T06:57:42.266Z,99.90
2022-07-25T07:00:13.031Z,99.90
2022-07-25T07:02:50.449Z,99.90
2022-07-25T07:05:18.676Z,99.90
2022-07-25T07:07:48.294Z,99.90
2022-07-25T07:10:16.830Z,59.40
2022-07-25T07:12:45.040Z,17.60
2022-07-25T07:15:16.480Z,1.00
2022-07-25T07:17:44.901Z,1.00
2022-07-25T07:20:13.524Z,1.00
2022-07-25T07:23:16.611Z,1.00
2022-07-25T07:26:02.424Z,1.00
2022-07-25T07:28:42.592Z,1.00
2022-07-25T07:31:20.491Z,1.00
2022-07-25T07:33:55.337Z,1.00
2022-07-25T07:36:29.960Z,1.00
2022-07-25T07:39:12.520Z,1.00
2022-07-25T07:41:51.477Z,1.00
2022-07-25T07:44:32.983Z,1.00
2022-07-25T07:47:14.400Z,1.00
2022-07-25T07:50:17.508Z,1.00
2022-07-25T07:52:57.209Z,1.00
2022-07-25T07:58:30.674Z,1.00
2022-07-25T08:00:58.660Z,1.00
2022-07-25T08:03:26.844Z,1.00
2022-07-25T08:05:55.050Z,1.00
2022-07-25T08:08:26.645Z,1.00
2022-07-25T08:10:59.460Z,1.00
2022-07-25T08:13:30.544Z,1.00
2022-07-25T08:16:00.294Z,1.00
2022-07-25T08:18:29.827Z,1.00
2022-07-25T08:20:58.463Z,1.00
2022-07-25T08:23:27.732Z,1.00
2022-07-25T08:25:56.025Z,1.00
2022-07-25T08:28:25.408Z,1.00
2022-07-25T08:30:53.580Z,1.00
2022-07-25T08:33:22.149Z,1.00
2022-07-25T08:35:52.078Z,1.00
2022-07-25T08:38:20.680Z,1.00
2022-07-25T08:40:48.989Z,1.00
2022-07-25T08:43:18.954Z,1.00
2022-07-25T08:45:49.904Z,1.00
2022-07-25T08:48:19.746Z,1.00
2022-07-25T08:50:49.221Z,1.00
2022-07-25T08:53:35.901Z,1.00
2022-07-25T08:56:10.721Z,1.00
2022-07-25T08:58:41.403Z,1.00
2022-07-25T09:01:10.947Z,1.00
2022-07-25T09:03:40.431Z,1.00
2022-07-25T09:06:19.691Z,1.00
2022-07-25T09:08:55.797Z,1.00
2022-07-25T09:11:32.339Z,1.00
2022-07-25T09:14:02.744Z,1.00
2022-07-25T09:16:36.083Z,1.00
2022-07-25T09:19:13.610Z,1.00
2022-07-25T09:21:43.032Z,1.00
2022-07-25T09:24:14.220Z,1.00
2022-07-25T09:26:47.453Z,1.00
2022-07-25T09:29:20.413Z,1.00
2022-07-25T09:31:50.071Z,1.00
2022-07-25T09:34:30.674Z,1.00
2022-07-25T09:36:59.265Z,1.00
2022-07-25T09:39:35.276Z,1.00
2022-07-25T09:42:03.302Z,1.00
2022-07-25T09:44:31.348Z,1.00
2022-07-25T09:47:11.804Z,1.00
2022-07-25T09:49:42.393Z,1.00
2022-07-25T09:52:11.072Z,1.00
2022-07-25T09:54:39.237Z,1.00
2022-07-25T09:57:07.222Z,1.00
2022-07-25T09:59:35.982Z,1.00
2022-07-25T10:02:10.098Z,1.00
2022-07-25T10:04:57.973Z,1.00
2022-07-25T10:07:31.200Z,1.00
2022-07-25T10:10:01.177Z,1.00
2022-07-25T10:12:29.169Z,1.00
2022-07-25T10:15:11.366Z,1.00
2022-07-25T10:17:43.159Z,1.00
2022-07-25T10:20:11.890Z,1.00
2022-07-25T10:22:57.620Z,1.00
2022-07-25T10:25:26.289Z,1.00
2022-07-25T10:28:01.189Z,1.00
2022-07-25T10:30:35.814Z,1.00
2022-07-25T10:33:12.625Z,1.00
2022-07-25T10:35:41.189Z,1.00
2022-07-25T10:38:09.543Z,1.00
2022-07-25T10:40:41.012Z,1.00
2022-07-25T10:43:12.545Z,1.00
2022-07-25T10:45:45.383Z,1.00
2022-07-25T10:48:25.621Z,1.00
2022-07-25T10:50:59.763Z,1.00
2022-07-25T10:53:39.629Z,1.00
2022-07-25T10:56:10.735Z,1.00
2022-07-25T10:58:48.006Z,1.00
2022-07-25T11:01:21.282Z,1.00
2022-07-25T11:03:54.726Z,1.00
2022-07-25T11:06:34.753Z,1.00
2022-07-25T11:09:04.211Z,1.00
2022-07-25T11:11:40.553Z,1.00
2022-07-25T11:14:16.767Z,1.00
2022-07-25T11:16:45.173Z,1.00
2022-07-25T11:19:22.534Z,1.00
2022-07-25T11:21:52.424Z,1.00
2022-07-25T11:24:20.698Z,1.00
2022-07-25T11:26:51.349Z,1.00
2022-07-25T11:29:20.512Z,1.00
2022-07-25T11:31:56.386Z,1.00
2022-07-25T11:34:28.302Z,1.00
2022-07-25T11:36:58.393Z,1.00
2022-07-25T11:39:28.328Z,1.00
2022-07-25T11:42:04.549Z,1.00
2022-07-25T11:44:35.407Z,1.00
2022-07-25T11:47:04.615Z,1.00
2022-07-25T11:49:44.313Z,1.00
2022-07-25T11:52:21.413Z,1.00
2022-07-25T11:54:54.918Z,1.00
2022-07-25T11:57:24.719Z,1.00
2022-07-25T11:59:53.049Z,1.00
2022-07-25T12:02:25.814Z,1.00
2022-07-25T12:05:01.047Z,1.00
2022-07-25T12:07:45.685Z,1.00
2022-07-25T12:10:16.795Z,1.00
2022-07-25T12:12:50.572Z,1.00
2022-07-25T12:15:21.639Z,1.00
2022-07-25T12:17:49.941Z,1.00
2022-07-25T12:20:21.421Z,1.00
2022-07-25T12:22:50.573Z,1.00
2022-07-25T12:25:18.653Z,1.00
2022-07-25T12:27:46.963Z,1.00
2022-07-25T12:30:15.348Z,1.00
2022-07-25T12:32:43.707Z,1.00
2022-07-25T12:35:13.786Z,1.00
2022-07-25T12:37:43.822Z,1.00
2022-07-25T12:40:12.936Z,1.00
2022-07-25T12:42:40.994Z,1.00
2022-07-25T12:45:09.811Z,1.00
2022-07-25T12:47:38.272Z,1.00
2022-07-25T12:50:07.747Z,1.00
2022-07-25T12:52:35.920Z,1.00
2022-07-25T12:55:06.042Z,1.00
2022-07-25T12:57:34.946Z,1.00
2022-07-25T13:00:03.201Z,1.00
2022-07-25T13:02:31.290Z,1.00
2022-07-25T13:04:59.217Z,1.00
2022-07-25T13:07:27.570Z,1.00
2022-07-25T13:09:55.491Z,1.00
2022-07-25T13:12:25.144Z,1.00
2022-07-25T13:14:53.422Z,1.00
2022-07-25T13:17:26.503Z,1.00
2022-07-25T13:19:56.013Z,1.00
2022-07-25T13:22:24.606Z,1.00
2022-07-25T13:24:52.993Z,1.00
2022-07-25T13:27:21.695Z,1.00
2022-07-25T13:29:54.533Z,1.00
2022-07-25T13:32:26.421Z,1.00
2022-07-25T13:34:54.388Z,1.00
2022-07-25T13:37:22.661Z,1.00
2022-07-25T13:39:50.715Z,1.00
2022-07-25T13:42:18.771Z,1.00
2022-07-25T13:44:46.895Z,1.00
2022-07-25T13:47:16.431Z,1.00
2022-07-25T13:49:44.488Z,1.00
2022-07-25T13:52:12.527Z,1.00
2022-07-25T13:54:40.636Z,1.00
2022-07-25T13:57:09.354Z,1.00
2022-07-25T13:59:37.483Z,1.00
2022-07-25T14:02:05.551Z,99.90
2022-07-25T14:04:34.818Z,99.90
2022-07-25T14:07:07.007Z,99.90
2022-07-25T14:09:35.941Z,99.90
2022-07-25T14:12:03.944Z,99.90
2022-07-25T14:14:32.034Z,99.90
2022-07-25T14:17:00.912Z,99.90
2022-07-25T14:19:29.200Z,99.90
2022-07-25T14:21:58.571Z,99.90
2022-07-25T14:24:26.479Z,99.90
2022-07-25T14:26:55.131Z,99.90
2022-07-25T14:29:27.261Z,99.90
2022-07-25T14:31:58.498Z,99.90
2022-07-25T14:34:28.180Z,99.90
2022-07-25T14:36:56.694Z,99.90
2022-07-25T14:39:26.222Z,99.90
2022-07-25T14:41:54.174Z,99.90
2022-07-25T14:44:22.332Z,99.90
2022-07-25T14:46:50.558Z,61.80
2022-07-25T14:49:19.523Z,1.00
2022-07-25T14:51:47.555Z,1.00
2022-07-25T14:54:15.643Z,99.90
2022-07-25T14:56:46.467Z,1.00
2022-07-25T14:59:14.447Z,99.90
2022-07-25T15:01:42.492Z,1.00
2022-07-25T15:04:10.574Z,99.90
2022-07-25T15:06:38.759Z,99.90
2022-07-25T15:09:07.622Z,44.20
2022-07-25T15:11:35.810Z,8.20
2022-07-25T15:14:05.092Z,1.00
2022-07-25T15:16:33.837Z,1.00
2022-07-25T15:19:25.641Z,1.00
2022-07-25T15:21:53.281Z,1.00
2022-07-25T15:24:23.579Z,1.00
2022-07-25T15:26:55.246Z,1.00
2022-07-25T15:29:25.340Z,1.00
2022-07-25T15:31:56.364Z,1.00
2022-07-25T15:34:24.794Z,1.00
2022-07-25T15:36:52.830Z,1.00
2022-07-25T15:39:20.915Z,1.00
2022-07-25T15:41:48.948Z,1.00
2022-07-25T15:44:17.030Z,1.00
2022-07-25T15:46:46.999Z,1.00
2022-07-25T15:49:16.777Z,1.00
2022-07-25T15:51:44.846Z,1.00
2022-07-25T15:54:12.862Z,1.00
2022-07-25T15:56:41.323Z,1.00
2022-07-25T15:59:09.866Z,1.00
2022-07-25T16:01:38.214Z,1.00
2022-07-25T16:04:08.265Z,1.00
2022-07-25T16:06:36.356Z,1.00
2022-07-25T16:09:05.016Z,1.00
2022-07-25T16:11:33.648Z,1.00
2022-07-25T16:14:01.684Z,1.00
2022-07-25T16:16:33.334Z,1.00
2022-07-25T16:19:01.546Z,1.00
2022-07-25T16:21:31.373Z,1.00
2022-07-25T16:23:59.346Z,1.00
2022-07-25T16:26:27.457Z,1.00
2022-07-25T16:28:57.719Z,1.00
2022-07-25T16:31:26.511Z,1.00
2022-07-25T16:33:54.664Z,1.00
2022-07-25T16:36:22.663Z,1.00
2022-07-25T16:38:53.344Z,1.00
2022-07-25T16:41:21.990Z,1.00
2022-07-25T16:43:49.953Z,1.00
2022-07-25T16:46:18.044Z,1.00
2022-07-25T16:48:46.109Z,1.00
2022-07-25T16:51:14.349Z,1.00
2022-07-25T16:53:42.345Z,1.00
2022-07-25T16:56:11.763Z,1.00
2022-07-25T16:58:39.839Z,1.00
2022-07-25T17:01:07.903Z,1.00
2022-07-25T17:03:35.886Z,1.00
2022-07-25T17:06:03.825Z,1.00
2022-07-25T17:08:32.704Z,1.00
2022-07-25T17:11:01.217Z,1.00
2022-07-25T17:13:30.467Z,1.00
2022-07-25T17:15:58.587Z,1.00
2022-07-25T17:18:26.890Z,1.00
2022-07-25T17:20:55.309Z,1.00
2022-07-25T17:23:23.746Z,1.00
2022-07-25T17:25:53.431Z,1.00
2022-07-25T17:28:22.086Z,1.00
2022-07-25T17:30:51.718Z,1.00
2022-07-25T17:33:19.736Z,1.00
2022-07-25T17:35:47.743Z,1.00
2022-07-25T17:38:15.926Z,1.00
2022-07-25T17:40:44.056Z,1.00
2022-07-25T17:43:12.081Z,1.00
2022-07-25T17:45:40.204Z,1.00
2022-07-25T17:48:10.016Z,1.00
2022-07-25T17:50:38.335Z,1.00
2022-07-25T17:53:06.383Z,1.00
2022-07-25T17:55:38.799Z,1.00
2022-07-25T17:58:07.291Z,1.00
2022-07-25T18:00:35.360Z,1.00
2022-07-25T18:03:03.446Z,1.00
2022-07-25T18:05:33.117Z,1.00
2022-07-25T18:08:02.815Z,1.00
2022-07-25T18:10:31.559Z,1.00
2022-07-25T18:13:01.889Z,1.00
2022-07-25T18:15:29.961Z,1.00
2022-07-25T18:17:58.108Z,1.00
2022-07-25T18:20:28.105Z,1.00
2022-07-25T18:22:58.629Z,1.00
2022-07-25T18:25:27.390Z,1.00
2022-07-25T18:27:55.382Z,1.00
2022-07-25T18:30:27.319Z,1.00
2022-07-25T18:32:57.304Z,1.00
2022-07-25T18:35:25.532Z,1.00
2022-07-25T18:37:53.493Z,1.00
2022-07-25T18:40:22.966Z,1.00
2022-07-25T18:42:51.316Z,1.00
2022-07-25T18:45:19.261Z,1.00
2022-07-25T18:47:49.075Z,1.00
2022-07-25T18:50:19.803Z,1.00
2022-07-25T18:52:47.784Z,1.00
2022-07-25T18:55:16.007Z,1.00
2022-07-25T18:57:45.419Z,1.00
2022-07-25T19:00:13.917Z,1.00
2022-07-25T19:02:41.949Z,1.00
2022-07-25T19:05:10.739Z,1.00
2022-07-25T19:07:39.819Z,1.00
2022-07-25T19:10:08.140Z,1.00
2022-07-25T19:12:36.493Z,1.00
2022-07-25T19:15:06.697Z,1.00
2022-07-25T19:17:35.824Z,1.00
2022-07-25T19:20:04.428Z,1.00
2022-07-25T19:22:32.467Z,1.00
2022-07-25T19:25:01.476Z,1.00
2022-07-25T19:27:29.431Z,1.00
2022-07-25T19:29:57.620Z,1.00
2022-07-25T19:32:27.310Z,1.00
2022-07-25T19:34:55.431Z,1.00
2022-07-25T19:37:23.383Z,1.00
2022-07-25T19:39:53.058Z,1.00
2022-07-25T19:42:21.897Z,1.00
2022-07-25T19:44:50.022Z,1.00
2022-07-25T19:47:18.163Z,1.00
2022-07-25T19:49:47.696Z,1.00
2022-07-25T19:52:15.659Z,1.00
2022-07-25T19:54:43.618Z,1.00
2022-07-25T19:57:11.840Z,1.00
2022-07-25T19:59:42.685Z,1.00
2022-07-25T20:02:11.288Z,1.00
2022-07-25T20:04:39.499Z,1.00
2022-07-25T20:07:14.896Z,1.00
2022-07-25T20:09:45.671Z,1.00
2022-07-25T20:12:15.071Z,1.00
2022-07-25T20:14:43.466Z,1.00
2022-07-25T20:17:12.008Z,1.00
2022-07-25T20:19:40.882Z,1.00
2022-07-25T20:22:11.745Z,1.00
2022-07-25T20:24:43.529Z,1.00
2022-07-25T20:27:11.574Z,1.00
2022-07-25T20:29:39.552Z,1.00
2022-07-25T20:32:08.067Z,1.00
2022-07-25T20:34:36.117Z,1.00
2022-07-25T20:37:04.126Z,1.00
2022-07-25T20:39:33.504Z,7.50
2022-07-25T20:42:02.638Z,13.00
2022-07-25T20:44:30.617Z,21.00
2022-07-25T20:46:58.569Z,28.20
2022-07-25T20:49:26.636Z,35.50
2022-07-25T20:51:54.893Z,39.00
2022-07-25T20:54:23.085Z,46.10
2022-07-25T20:56:53.008Z,45.60
2022-07-25T20:59:20.924Z,50.30
2022-07-25T21:01:49.022Z,49.20
2022-07-25T21:04:18.704Z,57.10
2022-07-25T21:06:46.775Z,60.70
2022-07-25T21:09:14.663Z,63.10
2022-07-25T21:11:42.636Z,53.50
2022-07-25T21:14:12.002Z,57.10
2022-07-25T21:16:39.951Z,64.20
2022-07-25T21:19:08.294Z,75.50
2022-07-25T21:21:37.171Z,77.10
2022-07-25T21:24:06.372Z,83.00
2022-07-25T21:26:34.277Z,81.70
2022-07-25T21:29:02.214Z,90.50
2022-07-25T21:31:31.548Z,94.10
2022-07-25T21:33:59.494Z,95.90
2022-07-25T21:36:28.396Z,99.90
2022-07-25T21:38:56.381Z,99.90
2022-07-25T21:41:24.310Z,99.90
2022-07-25T21:43:52.493Z,99.90
2022-07-25T21:46:20.420Z,99.90
2022-07-25T21:49:07.627Z,99.90
2022-07-25T21:51:40.495Z,99.90
2022-07-25T21:54:09.082Z,99.90
2022-07-25T21:56:37.312Z,99.90
2022-07-25T21:59:06.410Z,99.90
2022-07-25T22:01:34.693Z,99.90
2022-07-25T22:04:05.120Z,99.90
2022-07-25T22:06:33.273Z,99.90
2022-07-25T22:09:01.526Z,99.90
2022-07-25T22:11:42.522Z,99.90
2022-07-25T22:14:14.235Z,99.90
2022-07-25T22:16:42.301Z,99.90
2022-07-25T22:19:11.812Z,99.90
2022-07-25T22:21:40.593Z,99.90
2022-07-25T22:24:09.085Z,99.90
2022-07-25T22:26:37.346Z,99.90
2022-07-25T22:29:05.839Z,99.90
2022-07-25T22:31:34.145Z,99.90
2022-07-25T22:34:02.169Z,99.90
2022-07-25T22:36:31.438Z,99.90
2022-07-25T22:38:59.462Z,99.90
2022-07-25T22:41:27.785Z,99.90
2022-07-25T22:43:58.934Z,99.90
2022-07-25T22:46:28.402Z,99.90
2022-07-25T22:48:56.914Z,99.90
2022-07-25T22:51:30.222Z,99.90
2022-07-25T22:54:00.693Z,99.90
2022-07-25T22:56:28.986Z,99.90
2022-07-25T22:58:57.825Z,99.90
2022-07-25T23:01:26.943Z,99.90
2022-07-25T23:03:55.413Z,99.90
2022-07-25T23:06:23.719Z,99.90
2022-07-25T23:08:52.846Z,99.90
2022-07-25T23:11:22.292Z,99.90
2022-07-25T23:13:51.055Z,99.90
2022-07-25T23:16:19.209Z,99.90
2022-07-25T23:18:47.124Z,94.10
2022-07-25T23:21:15.198Z,96.20
2022-07-25T23:23:43.136Z,96.10
2022-07-25T23:26:11.371Z,99.40
2022-07-25T23:28:40.630Z,98.30
2022-07-25T23:31:08.800Z,96.90
2022-07-25T23:33:36.760Z,98.50
2022-07-25T23:36:05.180Z,99.90
2022-07-25T23:38:33.128Z,99.90
2022-07-25T23:41:01.655Z,99.90
2022-07-25T23:43:56.285Z,99.90
2022-07-25T23:46:24.523Z,99.90
2022-07-25T23:48:57.761Z,99.90
2022-07-25T23:51:25.828Z,99.90
2022-07-25T23:53:53.766Z,99.90
2022-07-25T23:56:21.780Z,99.90
2022-07-25T23:58:50.301Z,99.90
